Puerto Cabello, Venezuela
Current Conditions -  °F | °C
As of 7:00 AM on Friday 24 Oct 2014 (Local Time) from SVBS Reporting Station
Broken Clouds Broken Clouds  
Wind Chill: 75°   Ceiling: 1300
Heat Index: 75°   Visibility: 6mi
Dew Point: 73°   Wind: 2mph
Humidity: 94%   Direction: 310°NW
Pressure: 29.97"   Gusts: NA
Location:  10.47°N, 68.17°W
Report Text: SVBS 241100Z 31002KT 9999 BKN013 24/23 Q1015
Loading
Personal Weather Stations






























Interactive Weather Map
Tropical Storm Tracking
New forecast layout! Learn more

10-Day Weather Forecast

Advertisements
Track Severe Weather on mobile